createdAt,value
2018-03-27T00:02:08.741Z,44.00
2018-03-27T00:04:42.569Z,41.55
2018-03-27T00:07:10.576Z,40.58
2018-03-27T00:09:43.054Z,40.65
2018-03-27T00:12:11.993Z,36.88
2018-03-27T00:14:42.001Z,37.50
2018-03-27T00:17:11.001Z,39.55
2018-03-27T00:19:44.625Z,38.08
2018-03-27T00:22:18.121Z,39.63
2018-03-27T00:24:52.615Z,37.92
2018-03-27T00:27:40.061Z,39.95
2018-03-27T00:30:28.479Z,38.47
2018-03-27T00:33:11.289Z,37.05
2018-03-27T00:35:55.221Z,37.55
2018-03-27T00:38:35.596Z,34.33
2018-03-27T00:44:04.371Z,40.08
2018-03-27T00:46:32.389Z,36.83
2018-03-27T00:49:00.428Z,39.83
2018-03-27T00:51:30.404Z,38.58
2018-03-27T00:54:01.158Z,36.42
2018-03-27T00:56:30.916Z,40.67
2018-03-27T00:58:58.967Z,41.00
2018-03-27T01:01:30.448Z,39.30
2018-03-27T01:04:00.457Z,40.80
2018-03-27T01:06:28.481Z,39.72
2018-03-27T01:09:03.157Z,41.40
2018-03-27T01:11:37.153Z,38.55
2018-03-27T01:14:05.176Z,37.63
2018-03-27T01:16:33.221Z,40.08
2018-03-27T01:19:02.217Z,40.12
2018-03-27T01:21:30.277Z,39.45
2018-03-27T01:24:08.957Z,41.95
2018-03-27T01:26:37.014Z,38.97
2018-03-27T01:29:13.293Z,38.35
2018-03-27T01:31:47.944Z,40.97
2018-03-27T01:34:16.932Z,39.13
2018-03-27T01:36:46.980Z,42.62
2018-03-27T01:39:14.973Z,39.13
2018-03-27T01:42:07.737Z,37.70
2018-03-27T01:44:40.353Z,39.67
2018-03-27T01:47:12.400Z,37.35
2018-03-27T01:49:46.728Z,42.55
2018-03-27T01:52:19.626Z,38.28
2018-03-27T01:54:47.649Z,38.65
2018-03-27T01:57:15.668Z,41.20
2018-03-27T01:59:57.308Z,38.42
2018-03-27T02:02:27.252Z,38.90
2018-03-27T02:04:55.532Z,39.35
2018-03-27T02:07:25.572Z,43.00
2018-03-27T02:09:57.520Z,40.80
2018-03-27T02:12:37.625Z,41.83
2018-03-27T02:15:19.384Z,43.25
2018-03-27T02:18:06.297Z,42.95
2018-03-27T02:20:47.084Z,40.88
2018-03-27T02:23:30.344Z,43.80
2018-03-27T02:26:06.008Z,41.55
2018-03-27T02:28:36.045Z,42.30
2018-03-27T02:31:20.584Z,41.92
2018-03-27T02:33:55.201Z,42.53
2018-03-27T02:36:29.696Z,41.95
2018-03-27T02:38:59.656Z,40.53
2018-03-27T02:41:27.676Z,42.17
2018-03-27T02:43:55.704Z,41.00
2018-03-27T02:46:29.785Z,42.05
2018-03-27T02:49:11.580Z,43.83
2018-03-27T02:51:41.593Z,42.78
2018-03-27T02:54:09.621Z,44.33
2018-03-27T02:56:43.574Z,43.50
2018-03-27T02:59:12.569Z,43.95
2018-03-27T03:01:41.508Z,42.65
2018-03-27T03:04:22.177Z,38.75
2018-03-27T03:06:50.236Z,43.03
2018-03-27T03:09:28.788Z,42.62
2018-03-27T03:12:08.536Z,43.55
2018-03-27T03:14:39.708Z,43.80
2018-03-27T03:17:14.096Z,41.75
2018-03-27T03:19:42.145Z,42.42
2018-03-27T03:22:11.103Z,40.45
2018-03-27T03:24:57.625Z,40.12
2018-03-27T03:27:26.675Z,40.50
2018-03-27T03:29:58.260Z,38.05
2018-03-27T03:32:29.004Z,41.70
2018-03-27T03:35:04.608Z,43.35
2018-03-27T03:37:34.580Z,42.40
2018-03-27T03:40:02.582Z,44.65
2018-03-27T03:42:37.016Z,45.72
2018-03-27T03:45:08.868Z,44.35
2018-03-27T03:47:47.571Z,46.47
2018-03-27T03:50:21.076Z,44.15
2018-03-27T03:52:53.480Z,45.20
2018-03-27T03:55:25.227Z,46.72
2018-03-27T03:57:55.304Z,44.78
2018-03-27T04:00:25.308Z,44.85
2018-03-27T04:03:04.919Z,46.80
2018-03-27T04:05:40.632Z,44.22
2018-03-27T04:08:09.667Z,42.83
2018-03-27T04:10:41.320Z,46.00
2018-03-27T04:13:24.369Z,45.35
2018-03-27T04:15:55.684Z,43.03
2018-03-27T04:18:25.471Z,45.08
2018-03-27T04:21:02.832Z,43.65
2018-03-27T04:23:30.852Z,48.28
2018-03-27T04:26:02.400Z,46.53
2018-03-27T04:28:34.171Z,47.10
2018-03-27T04:31:12.879Z,45.88
2018-03-27T04:33:40.915Z,46.47
2018-03-27T04:36:08.923Z,46.17
2018-03-27T04:38:41.296Z,44.53
2018-03-27T04:41:13.119Z,44.08
2018-03-27T04:43:42.143Z,44.83
2018-03-27T04:46:13.668Z,42.78
2018-03-27T04:48:43.699Z,42.35
2018-03-27T04:51:33.599Z,36.97
2018-03-27T04:54:06.789Z,34.85
2018-03-27T04:56:40.483Z,32.97
2018-03-27T04:59:10.512Z,32.15
2018-03-27T05:01:40.484Z,23.35
2018-03-27T05:04:08.504Z,22.42
2018-03-27T05:06:42.155Z,22.08
2018-03-27T05:09:17.575Z,21.83
2018-03-27T05:11:47.527Z,22.27
2018-03-27T05:14:19.375Z,23.87
2018-03-27T05:16:57.672Z,24.15
2018-03-27T05:19:27.619Z,24.08
2018-03-27T05:21:55.646Z,25.20
2018-03-27T05:24:36.167Z,25.17
2018-03-27T05:27:05.963Z,25.75
2018-03-27T05:29:35.999Z,24.73
2018-03-27T05:32:06.003Z,23.33
2018-03-27T05:34:34.039Z,22.75
2018-03-27T05:37:03.047Z,23.83
2018-03-27T05:39:45.095Z,24.10
2018-03-27T05:42:15.082Z,23.67
2018-03-27T05:44:47.931Z,25.55
2018-03-27T05:47:24.391Z,23.35
2018-03-27T05:49:53.391Z,22.02
2018-03-27T05:52:33.835Z,23.92
2018-03-27T05:55:03.829Z,21.83
2018-03-27T05:57:33.808Z,23.77
2018-03-27T06:00:06.370Z,24.60
2018-03-27T06:02:36.379Z,24.98
2018-03-27T06:05:05.301Z,24.95
2018-03-27T06:07:40.287Z,26.58
2018-03-27T06:10:18.331Z,24.27
2018-03-27T06:12:46.375Z,26.73
2018-03-27T06:15:14.378Z,25.27
2018-03-27T06:17:49.579Z,25.20
2018-03-27T06:20:27.346Z,24.25
2018-03-27T06:22:59.671Z,25.37
2018-03-27T06:25:27.678Z,27.20
2018-03-27T06:27:55.711Z,24.40
2018-03-27T06:30:35.874Z,25.83
2018-03-27T06:33:04.822Z,24.95
2018-03-27T06:35:52.082Z,24.23
2018-03-27T06:38:33.198Z,25.37
2018-03-27T06:41:18.066Z,27.48
2018-03-27T06:43:54.846Z,29.15
2018-03-27T06:46:22.838Z,25.88
2018-03-27T06:48:51.814Z,24.12
2018-03-27T06:51:23.595Z,26.80
2018-03-27T06:54:01.967Z,26.73
2018-03-27T06:56:35.931Z,23.05
2018-03-27T06:59:03.984Z,24.05
2018-03-27T07:01:33.894Z,22.15
2018-03-27T07:04:08.783Z,20.20
2018-03-27T07:06:39.899Z,20.50
2018-03-27T07:09:07.914Z,20.33
2018-03-27T07:11:42.147Z,19.30
2018-03-27T07:14:11.044Z,19.02
2018-03-27T07:16:46.581Z,21.30
2018-03-27T07:19:18.571Z,21.05
2018-03-27T07:21:54.899Z,19.40
2018-03-27T07:24:26.971Z,22.70
2018-03-27T07:26:58.666Z,22.92
2018-03-27T07:29:34.046Z,24.45
2018-03-27T07:32:08.780Z,23.90
2018-03-27T07:34:40.870Z,24.30
2018-03-27T07:37:12.635Z,26.00
2018-03-27T07:39:40.671Z,27.60
2018-03-27T07:42:09.675Z,25.85
2018-03-27T07:44:40.002Z,27.10
2018-03-27T07:47:08.015Z,26.37
2018-03-27T07:49:42.322Z,24.80
2018-03-27T07:52:13.070Z,26.12
2018-03-27T07:54:41.082Z,25.05
2018-03-27T07:57:14.998Z,24.27
2018-03-27T07:59:45.015Z,26.23
2018-03-27T08:02:13.048Z,24.80
2018-03-27T08:04:46.478Z,24.60
2018-03-27T08:07:14.503Z,23.30
2018-03-27T08:09:43.278Z,24.97
2018-03-27T08:12:12.063Z,23.47
2018-03-27T08:14:46.446Z,22.93
2018-03-27T08:17:22.990Z,23.20
2018-03-27T08:20:01.711Z,23.40
2018-03-27T08:22:31.666Z,23.33
2018-03-27T08:25:04.242Z,21.63
2018-03-27T08:27:38.754Z,23.00
2018-03-27T08:30:12.309Z,23.90
2018-03-27T08:32:41.989Z,23.23
2018-03-27T08:35:11.762Z,22.90
2018-03-27T08:37:39.782Z,21.20
2018-03-27T08:40:07.810Z,23.37
2018-03-27T08:42:35.810Z,23.17
2018-03-27T08:45:04.598Z,23.77
2018-03-27T08:47:33.378Z,23.47
2018-03-27T08:50:09.078Z,23.93
2018-03-27T08:52:40.931Z,22.40
2018-03-27T08:55:09.869Z,21.73
2018-03-27T08:57:37.887Z,22.20
2018-03-27T09:00:16.952Z,22.77
2018-03-27T09:02:59.506Z,22.07
2018-03-27T09:05:32.118Z,22.77
2018-03-27T09:08:00.126Z,21.53
2018-03-27T09:10:31.754Z,21.53
2018-03-27T09:12:59.794Z,19.67
2018-03-27T09:15:28.721Z,19.50
2018-03-27T09:18:07.114Z,19.17
2018-03-27T09:20:36.034Z,21.03
2018-03-27T09:23:11.773Z,19.90
2018-03-27T09:25:54.121Z,19.03
2018-03-27T09:28:23.883Z,19.60
2018-03-27T09:30:55.454Z,16.77
2018-03-27T09:33:29.970Z,17.87
2018-03-27T09:36:03.642Z,18.23
2018-03-27T09:38:32.666Z,20.07
2018-03-27T09:41:07.318Z,18.63
2018-03-27T09:43:40.462Z,17.10
2018-03-27T09:46:08.476Z,16.90
2018-03-27T09:48:37.266Z,17.43
2018-03-27T09:51:06.042Z,20.27
2018-03-27T09:53:38.998Z,19.20
2018-03-27T09:56:07.998Z,18.70
2018-03-27T09:58:37.774Z,17.90
2018-03-27T10:01:08.757Z,17.00
2018-03-27T10:03:40.516Z,18.03
2018-03-27T10:06:13.246Z,16.70
2018-03-27T10:08:48.928Z,17.60
2018-03-27T10:11:24.858Z,17.20
2018-03-27T10:13:53.785Z,16.03
2018-03-27T10:16:21.814Z,16.93
2018-03-27T10:18:54.645Z,17.47
2018-03-27T10:21:22.663Z,15.63
2018-03-27T10:23:57.077Z,17.20
2018-03-27T10:26:25.098Z,17.37
2018-03-27T10:28:54.010Z,16.00
2018-03-27T10:31:22.845Z,17.40
2018-03-27T10:36:48.930Z,15.80
2018-03-27T10:39:17.921Z,16.37
2018-03-27T10:41:46.054Z,15.97
2018-03-27T10:44:17.337Z,16.00
2018-03-27T10:46:47.950Z,16.53
2018-03-27T10:49:24.505Z,14.20
2018-03-27T10:51:56.884Z,14.40
2018-03-27T10:54:30.281Z,14.38
2018-03-27T10:57:08.369Z,12.80
2018-03-27T10:59:50.705Z,10.15
2018-03-27T11:02:30.685Z,11.32
2018-03-27T11:04:59.641Z,10.55
2018-03-27T11:07:32.613Z,12.40
2018-03-27T11:10:04.520Z,11.93
2018-03-27T11:12:32.553Z,12.15
2018-03-27T11:15:00.569Z,9.80
2018-03-27T11:17:28.594Z,11.38
2018-03-27T11:20:11.390Z,9.15
2018-03-27T11:22:42.153Z,8.80
2018-03-27T11:25:10.174Z,10.07
2018-03-27T11:27:38.198Z,10.45
2018-03-27T11:30:07.085Z,9.45
2018-03-27T11:32:36.081Z,8.63
2018-03-27T11:35:05.004Z,8.65
2018-03-27T11:37:33.789Z,8.70
2018-03-27T11:40:03.553Z,9.65
2018-03-27T11:42:31.575Z,8.38
2018-03-27T11:45:03.418Z,9.05
2018-03-27T11:47:35.241Z,8.88
2018-03-27T11:50:03.265Z,7.95
2018-03-27T11:52:34.873Z,7.93
2018-03-27T11:55:02.885Z,8.07
2018-03-27T11:57:35.405Z,8.50
2018-03-27T12:00:06.473Z,11.02
2018-03-27T12:02:37.862Z,10.45
2018-03-27T12:05:05.889Z,9.85
2018-03-27T12:07:35.877Z,9.85
2018-03-27T12:10:03.905Z,8.80
2018-03-27T12:12:31.929Z,11.32
2018-03-27T12:15:03.205Z,10.70
2018-03-27T12:17:31.993Z,10.25
2018-03-27T12:20:03.761Z,14.80
2018-03-27T12:22:35.577Z,13.20
2018-03-27T12:25:09.225Z,14.17
2018-03-27T12:27:37.256Z,14.27
2018-03-27T12:30:05.285Z,14.40
2018-03-27T12:32:51.269Z,14.23
2018-03-27T12:35:25.342Z,14.57
2018-03-27T12:37:56.080Z,14.90
2018-03-27T12:40:26.073Z,14.53
2018-03-27T12:43:10.904Z,14.10
2018-03-27T12:45:38.909Z,13.37
2018-03-27T12:48:07.128Z,14.60
2018-03-27T12:50:36.093Z,14.20
2018-03-27T12:53:05.061Z,13.40
2018-03-27T12:55:33.102Z,14.07
2018-03-27T12:58:01.116Z,14.97
2018-03-27T13:00:29.146Z,13.67
2018-03-27T13:02:59.055Z,14.23
2018-03-27T13:05:33.104Z,13.17
2018-03-27T13:08:01.084Z,14.60
2018-03-27T13:10:36.028Z,13.57
2018-03-27T13:13:04.817Z,12.93
2018-03-27T13:15:34.584Z,13.83
2018-03-27T13:18:02.765Z,14.10
2018-03-27T13:20:31.717Z,13.60
2018-03-27T13:22:59.745Z,12.77
2018-03-27T13:25:35.252Z,12.60
2018-03-27T13:28:06.377Z,13.63
2018-03-27T13:30:38.080Z,13.47
2018-03-27T13:33:10.041Z,12.83
2018-03-27T13:35:38.068Z,12.97
2018-03-27T13:38:13.378Z,12.47
2018-03-27T13:40:44.084Z,12.77
2018-03-27T13:43:12.112Z,13.13
2018-03-27T13:45:54.940Z,12.50
2018-03-27T13:48:24.924Z,13.40
2018-03-27T13:50:59.992Z,12.90
2018-03-27T13:53:29.984Z,13.60
2018-03-27T13:55:58.936Z,14.10
2018-03-27T13:58:28.952Z,13.17
2018-03-27T14:01:00.600Z,14.43
2018-03-27T14:03:29.591Z,13.60
2018-03-27T14:06:06.044Z,13.70
2018-03-27T14:08:34.105Z,14.50
2018-03-27T14:11:09.743Z,12.80
2018-03-27T14:13:40.924Z,12.63
2018-03-27T14:16:09.175Z,13.80
2018-03-27T14:18:39.107Z,13.73
2018-03-27T14:21:08.095Z,13.00
2018-03-27T14:23:36.168Z,14.50
2018-03-27T14:26:08.844Z,13.07
2018-03-27T14:28:37.843Z,13.30
2018-03-27T14:31:07.804Z,14.70
2018-03-27T14:33:36.740Z,14.50
2018-03-27T14:36:05.648Z,15.43
2018-03-27T14:38:37.421Z,14.83
2018-03-27T14:41:10.367Z,14.27
2018-03-27T14:43:38.395Z,16.80
2018-03-27T14:46:08.355Z,15.10
2018-03-27T14:48:37.263Z,15.77
2018-03-27T14:51:09.615Z,15.20
2018-03-27T14:53:37.628Z,14.83
2018-03-27T14:56:08.327Z,14.67
2018-03-27T14:58:38.239Z,14.63
2018-03-27T15:01:20.363Z,13.57
2018-03-27T15:03:49.155Z,14.90
2018-03-27T15:06:17.944Z,14.80
2018-03-27T15:08:53.816Z,13.97
2018-03-27T15:11:22.755Z,14.63
2018-03-27T15:13:53.915Z,14.57
2018-03-27T15:16:22.907Z,14.33
2018-03-27T15:18:51.880Z,13.50
2018-03-27T15:21:20.215Z,13.23
2018-03-27T15:23:50.128Z,13.27
2018-03-27T15:26:19.068Z,15.00
2018-03-27T15:28:47.074Z,15.00
2018-03-27T15:31:15.076Z,15.70
2018-03-27T15:33:47.191Z,14.87
2018-03-27T15:36:16.987Z,15.43
2018-03-27T15:39:02.507Z,14.53
2018-03-27T15:41:32.183Z,18.50
2018-03-27T15:44:10.855Z,14.50
2018-03-27T15:46:39.770Z,16.60
2018-03-27T15:49:08.672Z,14.03
2018-03-27T15:51:37.663Z,12.90
2018-03-27T15:54:08.496Z,14.23
2018-03-27T15:56:37.486Z,13.77
2018-03-27T15:59:16.484Z,13.57
2018-03-27T16:01:46.423Z,13.67
2018-03-27T16:04:21.047Z,14.87
2018-03-27T16:06:52.499Z,13.10
2018-03-27T16:09:22.531Z,13.27
2018-03-27T16:11:52.327Z,13.13
2018-03-27T16:14:24.092Z,13.17
2018-03-27T16:16:53.072Z,13.57
2018-03-27T16:19:21.971Z,12.93
2018-03-27T16:21:51.983Z,14.60
2018-03-27T16:24:20.003Z,14.87
2018-03-27T16:26:54.046Z,14.10
2018-03-27T16:29:26.602Z,13.13
2018-03-27T16:31:54.635Z,13.77
2018-03-27T16:34:30.354Z,14.32
2018-03-27T16:36:59.264Z,14.00
2018-03-27T16:39:31.143Z,13.98
2018-03-27T16:41:59.923Z,14.40
2018-03-27T16:44:34.904Z,13.13
2018-03-27T16:47:02.931Z,14.77
2018-03-27T16:49:35.483Z,13.32
2018-03-27T16:52:03.503Z,13.23
2018-03-27T16:54:36.938Z,13.62
2018-03-27T16:57:04.983Z,13.00
2018-03-27T16:59:37.051Z,13.57
2018-03-27T17:02:05.079Z,13.85
2018-03-27T17:04:33.863Z,14.98
2018-03-27T17:07:02.635Z,13.43
2018-03-27T17:09:34.366Z,12.63
2018-03-27T17:12:02.391Z,14.48
2018-03-27T17:14:31.791Z,14.10
2018-03-27T17:17:02.475Z,14.02
2018-03-27T17:19:31.487Z,13.20
2018-03-27T17:21:59.494Z,13.35
2018-03-27T17:24:30.571Z,14.10
2018-03-27T17:27:02.335Z,14.55
2018-03-27T17:29:31.364Z,15.00
2018-03-27T17:32:02.674Z,13.93
2018-03-27T17:34:36.589Z,16.85
2018-03-27T17:37:10.222Z,15.35
2018-03-27T17:39:42.250Z,14.50
2018-03-27T17:42:11.138Z,15.30
2018-03-27T17:44:40.051Z,14.30
2018-03-27T17:47:08.054Z,15.07
2018-03-27T17:49:36.826Z,14.43
2018-03-27T17:52:05.607Z,16.87
2018-03-27T17:54:34.374Z,15.75
2018-03-27T17:57:03.054Z,16.30
2018-03-27T17:59:32.578Z,17.23
2018-03-27T18:02:06.850Z,18.65
2018-03-27T18:04:36.331Z,19.67
2018-03-27T18:07:04.338Z,18.50
2018-03-27T18:09:35.378Z,16.33
2018-03-27T18:12:03.382Z,16.98
2018-03-27T18:14:32.150Z,17.17
2018-03-27T18:17:01.147Z,19.33
2018-03-27T18:19:30.110Z,18.33
2018-03-27T18:21:58.118Z,15.50
2018-03-27T18:24:33.898Z,14.77
2018-03-27T18:27:03.631Z,14.85
2018-03-27T18:29:32.644Z,17.37
2018-03-27T18:32:04.359Z,18.92
2018-03-27T18:34:32.362Z,18.00
2018-03-27T18:37:00.366Z,18.92
2018-03-27T18:39:30.135Z,16.73
2018-03-27T18:41:58.146Z,15.25
2018-03-27T18:44:26.144Z,15.15
2018-03-27T18:46:56.050Z,15.93
2018-03-27T18:49:43.358Z,15.85
2018-03-27T18:52:11.362Z,14.35
2018-03-27T18:54:45.287Z,14.60
2018-03-27T18:57:19.207Z,15.32
2018-03-27T18:59:48.338Z,18.83
2018-03-27T19:02:17.138Z,17.77
2018-03-27T19:04:47.148Z,17.65
2018-03-27T19:07:15.949Z,16.90
2018-03-27T19:09:57.838Z,18.40
2018-03-27T19:12:25.850Z,16.80
2018-03-27T19:14:58.226Z,15.07
2018-03-27T19:17:26.235Z,14.52
2018-03-27T19:19:55.200Z,14.57
2018-03-27T19:22:31.078Z,16.95
2018-03-27T19:24:59.854Z,15.80
2018-03-27T19:27:34.006Z,16.08
2018-03-27T19:30:03.166Z,17.98
2018-03-27T19:32:35.042Z,15.93
2018-03-27T19:35:05.742Z,18.85
2018-03-27T19:37:41.246Z,19.40
2018-03-27T19:40:09.602Z,18.58
2018-03-27T19:42:37.626Z,18.60
2018-03-27T19:45:06.614Z,18.87
2018-03-27T19:47:36.626Z,19.80
2018-03-27T19:50:05.635Z,19.25
2018-03-27T19:52:34.578Z,20.67
2018-03-27T19:55:03.207Z,19.17
2018-03-27T19:57:31.222Z,19.70
2018-03-27T19:59:59.226Z,19.65
2018-03-27T20:02:27.242Z,19.20
2018-03-27T20:04:57.041Z,20.73
2018-03-27T20:07:25.062Z,19.02
2018-03-27T20:09:56.862Z,20.52
2018-03-27T20:12:24.870Z,20.20
2018-03-27T20:14:52.942Z,20.30
2018-03-27T20:17:21.297Z,22.70
2018-03-27T20:19:55.002Z,21.17
2018-03-27T20:22:23.918Z,21.42
2018-03-27T20:24:57.553Z,22.48
2018-03-27T20:27:27.593Z,21.37
2018-03-27T20:29:59.223Z,22.67
2018-03-27T20:32:28.454Z,21.77
2018-03-27T20:34:57.517Z,23.20
2018-03-27T20:37:25.601Z,20.70
2018-03-27T20:39:57.450Z,22.37
2018-03-27T20:42:26.682Z,21.90
2018-03-27T20:44:54.737Z,21.58
2018-03-27T20:47:23.713Z,22.05
2018-03-27T20:49:52.722Z,22.08
2018-03-27T20:52:41.926Z,22.50
2018-03-27T20:55:19.394Z,22.85
2018-03-27T20:57:47.573Z,22.33
2018-03-27T21:00:28.473Z,23.15
2018-03-27T21:02:58.422Z,24.08
2018-03-27T21:05:27.451Z,23.27
2018-03-27T21:07:59.309Z,23.70
2018-03-27T21:10:29.074Z,22.55
2018-03-27T21:12:57.092Z,23.40
2018-03-27T21:15:31.650Z,23.60
2018-03-27T21:17:59.685Z,22.60
2018-03-27T21:20:43.034Z,23.30
2018-03-27T21:23:11.997Z,22.23
2018-03-27T21:25:40.017Z,25.83
2018-03-27T21:28:09.190Z,22.20
2018-03-27T21:30:37.190Z,23.87
2018-03-27T21:33:13.521Z,23.48
2018-03-27T21:35:43.857Z,23.08
2018-03-27T21:38:25.033Z,25.33
2018-03-27T21:40:54.002Z,23.62
2018-03-27T21:43:22.973Z,25.15
2018-03-27T21:45:53.017Z,23.75
2018-03-27T21:48:21.094Z,24.70
2018-03-27T21:50:49.938Z,23.23
2018-03-27T21:53:18.949Z,24.60
2018-03-27T21:55:46.989Z,23.23
2018-03-27T21:58:16.045Z,25.65
2018-03-27T22:00:48.677Z,23.58
2018-03-27T22:03:16.705Z,23.92
2018-03-27T22:05:46.713Z,25.60
2018-03-27T22:08:18.089Z,25.50
2018-03-27T22:10:48.030Z,23.25
2018-03-27T22:13:22.589Z,24.40
2018-03-27T22:15:53.285Z,24.83
2018-03-27T22:18:22.201Z,23.87
2018-03-27T22:20:53.020Z,24.12
2018-03-27T22:23:21.981Z,23.90
2018-03-27T22:25:50.013Z,26.42
2018-03-27T22:28:26.492Z,25.95
2018-03-27T22:30:54.529Z,23.42
2018-03-27T22:33:22.534Z,26.92
2018-03-27T22:35:54.113Z,23.77
2018-03-27T22:38:22.137Z,24.10
2018-03-27T22:40:50.161Z,23.58
2018-03-27T22:43:21.865Z,25.52
2018-03-27T22:45:49.878Z,25.73
2018-03-27T22:48:17.917Z,25.23
2018-03-27T22:50:57.077Z,25.92
2018-03-27T22:53:25.102Z,25.02
2018-03-27T22:55:53.105Z,25.75
2018-03-27T22:58:37.729Z,23.48
2018-03-27T23:01:07.713Z,25.75
2018-03-27T23:03:37.469Z,27.37
2018-03-27T23:06:09.044Z,27.20
2018-03-27T23:08:41.037Z,26.55
2018-03-27T23:11:10.041Z,29.23
2018-03-27T23:13:41.084Z,27.33
2018-03-27T23:16:10.053Z,28.40
2018-03-27T23:18:40.077Z,29.75
2018-03-27T23:21:20.113Z,29.02
2018-03-27T23:23:49.109Z,28.20
2018-03-27T23:26:17.236Z,26.27
2018-03-27T23:28:46.217Z,26.98
2018-03-27T23:31:15.153Z,28.55
2018-03-27T23:33:44.137Z,28.15
2018-03-27T23:36:12.149Z,26.02
2018-03-27T23:38:42.886Z,29.35
2018-03-27T23:41:11.713Z,27.30
2018-03-27T23:43:40.741Z,28.17
2018-03-27T23:46:08.760Z,29.77
2018-03-27T23:48:36.804Z,28.87
2018-03-27T23:51:11.177Z,28.00
2018-03-27T23:53:41.106Z,27.70
2018-03-27T23:56:22.649Z,30.48
2018-03-27T23:58:54.245Z,25.75
